Time;durP1;ratioP1;P1;durP2;ratioP2;P2;SDS_P1;SDS_P2;PMS_P1;PMS_P2;Temp;Humidity;BMP_temperature;BMP_pressure;BME280_temperature;BME280_humidity;BME280_pressure;Samples;Min_cycle;Max_cycle;Signal;HPM_P1;HPM_P2
2022/05/30 00:01:14;;;;;;;5.82;1.50;;;23.50;99.90;;;;;;4952864;28;20048;-49
2022/05/30 00:03:40;;;;;;;5.88;1.55;;;23.50;99.90;;;;;;4954149;28;20031;-51
2022/05/30 00:06:12;;;;;;;8.77;1.58;;;23.50;99.90;;;;;;4954750;28;20099;-48
2022/05/30 00:08:38;;;;;;;10.77;1.77;;;23.50;99.90;;;;;;4952856;29;20027;-50
2022/05/30 00:11:06;;;;;;;11.45;1.92;;;23.50;99.90;;;;;;4955538;28;20049;-52
2022/05/30 00:13:32;;;;;;;7.20;1.77;;;23.50;99.90;;;;;;4955980;28;20134;-52
2022/05/30 00:16:02;;;;;;;8.43;1.90;;;23.50;99.90;;;;;;4956264;28;20066;-52
2022/05/30 00:18:28;;;;;;;6.90;1.77;;;23.50;99.90;;;;;;4953860;28;20027;-50
2022/05/30 00:20:54;;;;;;;9.43;1.90;;;23.50;99.90;;;;;;4956141;29;20050;-50
2022/05/30 00:23:20;;;;;;;8.52;2.47;;;23.60;99.90;;;;;;4956158;28;20023;-52
2022/05/30 00:25:46;;;;;;;5.43;1.48;;;23.60;99.90;;;;;;4955369;29;20035;-50
2022/05/30 00:28:12;;;;;;;4.53;1.23;;;23.60;99.90;;;;;;4956278;28;20086;-49
2022/05/30 00:30:38;;;;;;;6.63;1.77;;;23.60;99.90;;;;;;4955940;29;20027;-50
2022/05/30 00:33:03;;;;;;;7.13;1.60;;;23.60;99.90;;;;;;4955622;28;20360;-54
2022/05/30 00:35:30;;;;;;;7.95;1.20;;;23.60;99.90;;;;;;4956175;28;20038;-52
2022/05/30 00:37:56;;;;;;;5.47;1.98;;;23.60;99.90;;;;;;4955869;28;20027;-51
2022/05/30 00:40:22;;;;;;;4.13;1.73;;;23.60;99.90;;;;;;4955680;28;20016;-53
2022/05/30 00:42:48;;;;;;;9.15;1.73;;;23.60;99.90;;;;;;4956092;28;20388;-54
2022/05/30 00:45:14;;;;;;;3.72;1.30;;;23.70;99.90;;;;;;4956074;28;20030;-52
2022/05/30 00:47:40;;;;;;;6.97;1.27;;;23.70;99.90;;;;;;4953858;28;20019;-52
2022/05/30 00:50:08;;;;;;;3.25;1.45;;;23.70;99.90;;;;;;4951831;28;20189;-53
2022/05/30 00:52:38;;;;;;;;;;;23.80;99.90;;;;;;4954858;28;20448;-54
2022/05/30 00:55:11;;;;;;;3.92;1.10;;;23.90;99.90;;;;;;4953602;28;19925;-53
2022/05/30 00:57:39;;;;;;;5.63;1.10;;;23.90;99.90;;;;;;4954673;28;20055;-53
2022/05/30 01:00:12;;;;;;;2.20;1.13;;;23.90;99.90;;;;;;4954902;28;20149;-52
2022/05/30 01:02:40;;;;;;;5.30;1.58;;;23.90;99.90;;;;;;4954303;28;20031;-53
2022/05/30 01:07:53;;;;;;;7.00;2.35;;;23.90;99.90;;;;;;4955659;28;20502;-52
2022/05/30 01:10:22;;;;;;;3.40;1.23;;;24.00;99.90;;;;;;4953712;29;20020;-52
2022/05/30 01:12:55;;;;;;;3.05;1.58;;;24.00;99.90;;;;;;4954961;28;20039;-52
2022/05/30 01:15:26;;;;;;;7.70;1.27;;;24.00;99.90;;;;;;4954211;28;20055;-51
2022/05/30 01:18:09;;;;;;;3.80;1.02;;;24.00;99.90;;;;;;4954975;28;20019;-53
2022/05/30 01:20:53;;;;;;;4.35;1.20;;;24.10;99.90;;;;;;4955091;28;20066;-51
2022/05/30 01:23:22;;;;;;;4.68;1.00;;;24.10;99.90;;;;;;4955531;28;20365;-51
2022/05/30 01:26:13;;;;;;;5.18;1.02;;;24.20;99.90;;;;;;4969842;28;20364;-52
2022/05/30 01:28:41;;;;;;;3.42;1.55;;;24.20;99.90;;;;;;4955086;28;20019;-53
2022/05/30 01:31:08;;;;;;;7.18;1.55;;;24.20;99.90;;;;;;4954446;28;20380;-54
2022/05/30 01:33:34;;;;;;;4.47;1.45;;;24.20;99.90;;;;;;4953260;28;20031;-52
2022/05/30 01:36:00;;;;;;;4.18;1.10;;;24.10;99.90;;;;;;4953896;28;20023;-51
2022/05/30 01:38:27;;;;;;;5.45;1.83;;;24.10;99.90;;;;;;4954957;29;20054;-51
2022/05/30 01:40:55;;;;;;;7.60;1.63;;;24.00;99.90;;;;;;4954577;29;20042;-52
2022/05/30 01:43:21;;;;;;;;;;;23.90;99.90;;;;;;4955168;28;20110;-51
2022/05/30 01:45:47;;;;;;;5.97;1.75;;;23.80;99.90;;;;;;4954958;28;19997;-51
2022/05/30 01:48:13;;;;;;;5.88;1.67;;;23.70;99.90;;;;;;4954307;28;20062;-51
2022/05/30 01:50:38;;;;;;;4.28;1.35;;;23.70;99.90;;;;;;4954779;29;20023;-52
2022/05/30 01:53:04;;;;;;;11.07;1.40;;;23.70;99.90;;;;;;4952653;28;20043;-53
2022/05/30 01:55:30;;;;;;;5.35;1.45;;;23.70;99.90;;;;;;4952979;28;20066;-52
2022/05/30 01:57:56;;;;;;;4.00;1.67;;;23.60;99.90;;;;;;4954403;29;20030;-51
2022/05/30 02:00:22;;;;;;;7.82;2.40;;;23.70;99.90;;;;;;4954928;29;20460;-51
2022/05/30 02:02:49;;;;;;;;;;;23.70;99.90;;;;;;4954523;28;20139;-51
2022/05/30 02:05:15;;;;;;;4.13;1.30;;;23.80;99.90;;;;;;4953490;28;20009;-51
2022/05/30 02:07:41;;;;;;;5.68;1.67;;;23.70;99.90;;;;;;4951558;28;20836;-53
2022/05/30 02:10:08;;;;;;;4.63;1.20;;;23.70;99.90;;;;;;4953828;28;20491;-51
2022/05/30 02:12:33;;;;;;;3.03;1.20;;;23.70;99.90;;;;;;4954281;28;20471;-51
2022/05/30 02:14:59;;;;;;;3.95;1.23;;;23.80;99.90;;;;;;4954281;28;20162;-54
2022/05/30 02:17:25;;;;;;;5.18;1.20;;;23.80;99.90;;;;;;4953776;28;20027;-51
2022/05/30 02:19:51;;;;;;;3.80;1.10;;;23.90;99.90;;;;;;4954241;28;20030;-51
2022/05/30 02:22:20;;;;;;;3.45;1.00;;;24.00;99.90;;;;;;4953590;28;20036;-53
2022/05/30 02:24:48;;;;;;;3.78;1.15;;;24.00;99.90;;;;;;4952826;28;20423;-50
2022/05/30 02:27:15;;;;;;;4.07;1.50;;;24.00;99.90;;;;;;4968307;28;20416;-50
2022/05/30 02:29:42;;;;;;;6.93;1.55;;;24.10;99.90;;;;;;4954177;29;20535;-50
2022/05/30 02:32:08;;;;;;;5.72;1.85;;;24.10;99.90;;;;;;4953535;29;20086;-51
2022/05/30 02:37:19;;;;;;;4.07;0.93;;;24.00;99.90;;;;;;4953429;29;20078;-52
2022/05/30 02:39:45;;;;;;;5.15;1.67;;;24.00;99.90;;;;;;4940305;29;20035;-53
2022/05/30 02:42:11;;;;;;;5.75;1.40;;;24.00;99.90;;;;;;4953818;28;20027;-52
2022/05/30 02:44:37;;;;;;;4.30;1.20;;;24.00;99.90;;;;;;4953500;28;20023;-52
2022/05/30 02:47:05;;;;;;;7.20;1.40;;;24.10;99.90;;;;;;4968095;28;20365;-51
2022/05/30 02:49:31;;;;;;;6.13;1.35;;;24.10;99.90;;;;;;4953536;29;20506;-52
2022/05/30 02:51:57;;;;;;;3.65;1.20;;;24.00;99.90;;;;;;4953423;29;20082;-53
2022/05/30 02:54:25;;;;;;;6.82;1.85;;;24.00;99.90;;;;;;4953272;28;20387;-51
2022/05/30 02:56:53;;;;;;;7.45;1.48;;;24.00;99.90;;;;;;4964727;28;20052;-50
2022/05/30 02:59:20;;;;;;;6.43;1.35;;;24.00;99.90;;;;;;4952911;29;20134;-51
2022/05/30 03:01:46;;;;;;;4.97;1.33;;;24.00;99.90;;;;;;4952049;28;20259;-50
2022/05/30 03:04:13;;;;;;;4.43;1.90;;;24.00;99.90;;;;;;4951484;28;20538;-51
2022/05/30 03:06:39;;;;;;;5.40;1.25;;;24.00;99.90;;;;;;4951477;28;20027;-50
2022/05/30 03:09:05;;;;;;;7.90;1.42;;;24.00;99.90;;;;;;4951506;28;20602;-50
2022/05/30 03:11:32;;;;;;;4.78;1.25;;;24.00;99.90;;;;;;4951265;28;20043;-50
2022/05/30 03:13:58;;;;;;;4.97;1.15;;;24.00;99.90;;;;;;4951313;28;20389;-50
2022/05/30 03:16:24;;;;;;;5.72;1.25;;;24.10;99.90;;;;;;4951952;28;20023;-51
2022/05/30 03:18:50;;;;;;;6.68;1.35;;;24.10;99.90;;;;;;4952954;28;20102;-50
2022/05/30 03:21:16;;;;;;;5.20;1.45;;;24.10;99.90;;;;;;4953340;29;20027;-50
2022/05/30 03:23:42;;;;;;;3.72;1.00;;;24.10;99.90;;;;;;4953213;28;20098;-51
2022/05/30 03:26:09;;;;;;;4.00;1.20;;;24.10;99.90;;;;;;4951743;28;20340;-51
2022/05/30 03:28:35;;;;;;;3.10;0.88;;;24.10;99.90;;;;;;4951214;29;20316;-51
2022/05/30 03:31:03;;;;;;;7.82;1.08;;;24.10;99.90;;;;;;4951552;28;20039;-51
2022/05/30 03:33:29;;;;;;;3.80;1.38;;;24.10;99.90;;;;;;4951546;28;20372;-51
2022/05/30 03:35:55;;;;;;;4.88;1.20;;;24.10;99.90;;;;;;4952602;28;20032;-51
2022/05/30 03:38:21;;;;;;;4.18;1.50;;;24.10;99.90;;;;;;4958074;28;20035;-51
2022/05/30 03:40:47;;;;;;;6.65;1.55;;;24.20;99.90;;;;;;4958148;28;20035;-50
2022/05/30 03:43:13;;;;;;;3.47;1.20;;;24.20;99.90;;;;;;4958605;28;20487;-50
2022/05/30 03:45:41;;;;;;;5.15;1.55;;;24.20;99.90;;;;;;4959390;28;20079;-50
2022/05/30 03:48:08;;;;;;;3.67;1.20;;;24.20;99.90;;;;;;4959495;28;20038;-51
2022/05/30 03:50:36;;;;;;;5.40;1.63;;;24.10;99.90;;;;;;4959518;28;20637;-51
2022/05/30 03:53:07;;;;;;;5.15;0.88;;;24.10;99.90;;;;;;4959504;28;20043;-51
2022/05/30 03:55:37;;;;;;;4.57;1.00;;;24.10;99.90;;;;;;4959579;28;20019;-51
2022/05/30 03:58:05;;;;;;;4.53;1.20;;;24.10;99.90;;;;;;4959364;28;20050;-51
2022/05/30 04:00:33;;;;;;;5.45;1.30;;;24.10;99.90;;;;;;4960349;28;20047;-51
2022/05/30 04:03:00;;;;;;;3.05;0.82;;;24.00;99.90;;;;;;4974264;28;20041;-49
2022/05/30 04:05:26;;;;;;;3.20;0.75;;;24.00;99.90;;;;;;4959533;28;20088;-49
2022/05/30 04:07:52;;;;;;;3.28;0.80;;;23.90;99.90;;;;;;4959540;28;20074;-50
2022/05/30 04:10:18;;;;;;;2.28;0.98;;;23.90;99.90;;;;;;4959375;29;20101;-50
2022/05/30 04:12:44;;;;;;;2.67;0.98;;;23.90;99.90;;;;;;4959218;28;20035;-49
2022/05/30 04:15:18;;;;;;;4.70;1.15;;;23.90;99.90;;;;;;4959175;28;20038;-49
2022/05/30 04:17:44;;;;;;;4.25;1.58;;;23.90;99.90;;;;;;4959293;28;20030;-49
2022/05/30 04:20:11;;;;;;;2.70;0.88;;;23.80;99.90;;;;;;4959221;28;20023;-49
2022/05/30 04:22:36;;;;;;;6.43;1.70;;;23.80;99.90;;;;;;4959328;28;20110;-50
2022/05/30 04:25:02;;;;;;;6.00;1.35;;;23.80;99.90;;;;;;4959162;28;20400;-49
2022/05/30 04:27:29;;;;;;;3.33;1.15;;;23.70;99.90;;;;;;4959278;28;20533;-49
2022/05/30 04:29:54;;;;;;;5.25;1.63;;;23.70;99.90;;;;;;4959191;28;20027;-49
2022/05/30 04:32:20;;;;;;;2.75;0.80;;;23.70;99.90;;;;;;4959068;28;20042;-49
2022/05/30 04:34:46;;;;;;;5.00;1.10;;;23.70;99.90;;;;;;4958969;28;20087;-49
2022/05/30 04:37:12;;;;;;;5.78;1.75;;;23.60;99.90;;;;;;4958986;28;20027;-49
2022/05/30 04:39:38;;;;;;;2.40;0.85;;;23.50;99.90;;;;;;4959083;28;20058;-49
2022/05/30 04:42:04;;;;;;;6.43;1.20;;;23.50;99.90;;;;;;4959020;28;20487;-50
2022/05/30 04:44:31;;;;;;;3.00;1.10;;;23.50;99.90;;;;;;4958978;28;20041;-50
2022/05/30 04:46:58;;;;;;;4.78;0.90;;;23.50;99.90;;;;;;4958320;28;20266;-50
2022/05/30 04:49:25;;;;;;;3.95;1.15;;;23.50;99.90;;;;;;4955597;28;20594;-50
2022/05/30 04:51:52;;;;;;;6.00;1.48;;;23.50;99.90;;;;;;4955934;28;20075;-50
2022/05/30 04:54:20;;;;;;;4.63;1.15;;;23.50;99.90;;;;;;4955982;28;20032;-50
2022/05/30 04:56:46;;;;;;;5.43;1.45;;;23.50;99.90;;;;;;4956008;28;20028;-49
2022/05/30 04:59:12;;;;;;;2.67;1.10;;;23.50;99.90;;;;;;4955647;28;20038;-49
2022/05/30 05:01:38;;;;;;;4.50;1.15;;;23.50;99.90;;;;;;4955680;28;20051;-49
2022/05/30 05:04:05;;;;;;;4.45;0.90;;;23.50;99.90;;;;;;4955590;28;20074;-49
2022/05/30 05:06:31;;;;;;;4.93;1.35;;;23.50;99.90;;;;;;4955678;28;20058;-49
2022/05/30 05:09:15;;;;;;;5.57;1.00;;;23.60;99.90;;;;;;4955753;29;20062;-49
2022/05/30 05:11:42;;;;;;;3.05;1.08;;;23.60;99.90;;;;;;4955472;29;20508;-50
2022/05/30 05:14:08;;;;;;;3.97;1.23;;;23.70;99.90;;;;;;4955461;29;20569;-49
2022/05/30 05:16:35;;;;;;;5.18;1.30;;;23.70;99.90;;;;;;4955359;28;20137;-49
2022/05/30 05:19:01;;;;;;;4.93;1.35;;;23.70;99.90;;;;;;4955611;29;20023;-50
2022/05/30 05:21:29;;;;;;;3.88;1.02;;;23.60;99.90;;;;;;4970284;28;20435;-49
2022/05/30 05:23:56;;;;;;;3.05;1.15;;;23.60;99.90;;;;;;4955395;28;20114;-49
2022/05/30 05:26:22;;;;;;;3.97;1.13;;;23.60;99.90;;;;;;4955478;29;20110;-49
2022/05/30 05:28:49;;;;;;;7.00;1.77;;;23.50;99.90;;;;;;4955255;28;20324;-49
2022/05/30 05:31:24;;;;;;;6.43;1.52;;;23.50;99.90;;;;;;4955193;29;20023;-49
2022/05/30 05:33:52;;;;;;;5.60;1.25;;;23.50;99.90;;;;;;4955128;28;20059;-50
2022/05/30 05:36:22;;;;;;;9.32;1.33;;;23.60;99.90;;;;;;4955077;28;20491;-50
2022/05/30 05:38:49;;;;;;;2.80;1.00;;;23.50;99.90;;;;;;4955095;29;20039;-50
2022/05/30 05:41:15;;;;;;;3.07;1.10;;;23.60;99.90;;;;;;4954991;28;20415;-50
2022/05/30 05:43:41;;;;;;;5.72;0.85;;;23.60;99.90;;;;;;4954929;28;20035;-49
2022/05/30 05:46:13;;;;;;;2.78;1.17;;;23.70;99.90;;;;;;4954896;29;20031;-49
2022/05/30 05:48:39;;;;;;;6.28;1.55;;;23.70;99.90;;;;;;4954949;29;20027;-49
2022/05/30 05:51:05;;;;;;;4.80;1.30;;;23.70;99.90;;;;;;4954778;28;20179;-49
2022/05/30 05:53:31;;;;;;;4.25;1.20;;;23.70;99.90;;;;;;4954941;28;20035;-49
2022/05/30 05:55:57;;;;;;;6.05;1.20;;;23.70;99.90;;;;;;4954767;28;20024;-49
2022/05/30 05:58:23;;;;;;;6.50;1.67;;;23.70;99.90;;;;;;4954449;28;20063;-49
2022/05/30 06:00:49;;;;;;;4.35;0.98;;;23.70;99.90;;;;;;4954409;28;20075;-49
2022/05/30 06:03:15;;;;;;;4.50;1.08;;;23.70;99.90;;;;;;4954559;29;20500;-49
2022/05/30 06:05:41;;;;;;;5.35;1.45;;;23.70;99.90;;;;;;4954627;28;20027;-49
2022/05/30 06:08:07;;;;;;;6.05;1.40;;;23.70;99.90;;;;;;4954497;28;20089;-49
2022/05/30 06:11:04;;;;;;;6.97;1.52;;;23.70;99.90;;;;;;4954511;29;20125;-50
2022/05/30 06:13:19;;;;;;;5.13;1.75;;;23.70;99.90;;;;;;4954245;28;20166;-50
2022/05/30 06:15:44;;;;;;;4.40;1.48;;;23.80;99.90;;;;;;4954391;28;20541;-49
2022/05/30 06:18:10;;;;;;;4.20;1.23;;;23.70;99.90;;;;;;4954332;28;20038;-50
2022/05/30 06:20:37;;;;;;;5.45;1.73;;;23.70;99.90;;;;;;4954223;28;20054;-50
2022/05/30 06:23:03;;;;;;;9.05;1.75;;;23.70;99.90;;;;;;4954425;29;20126;-50
2022/05/30 06:25:29;;;;;;;6.05;1.20;;;23.80;99.90;;;;;;4954136;28;20491;-50
2022/05/30 06:27:55;;;;;;;4.18;1.35;;;23.80;99.90;;;;;;4953913;28;20059;-49
2022/05/30 06:30:21;;;;;;;2.08;0.88;;;23.80;99.90;;;;;;4954039;29;20027;-50
2022/05/30 06:32:47;;;;;;;3.63;1.67;;;23.80;99.90;;;;;;4953824;28;20458;-50
2022/05/30 06:35:12;;;;;;;4.07;1.05;;;23.80;99.90;;;;;;4953991;29;20452;-49
2022/05/30 06:37:38;;;;;;;6.25;1.77;;;23.80;99.90;;;;;;4953935;28;20573;-50
2022/05/30 06:40:04;;;;;;;4.38;1.73;;;23.90;99.90;;;;;;4954113;28;20463;-50
2022/05/30 06:42:30;;;;;;;3.42;1.30;;;23.90;99.90;;;;;;4953971;29;20023;-50
2022/05/30 06:44:56;;;;;;;4.35;1.70;;;24.00;99.90;;;;;;4953767;28;20261;-50
2022/05/30 06:47:21;;;;;;;3.65;1.08;;;24.00;99.90;;;;;;4953604;28;20074;-50
2022/05/30 06:49:47;;;;;;;3.92;1.42;;;24.00;99.90;;;;;;4953710;28;20028;-50
2022/05/30 06:52:13;;;;;;;3.40;1.25;;;24.10;99.90;;;;;;4953720;28;20442;-50
2022/05/30 06:54:39;;;;;;;5.47;1.65;;;24.10;99.90;;;;;;4953551;28;20035;-50
2022/05/30 06:59:50;;;;;;;6.07;1.63;;;24.20;99.90;;;;;;4953714;29;20078;-50
2022/05/30 07:02:16;;;;;;;7.75;2.20;;;24.30;99.90;;;;;;4953494;28;20388;-50
2022/05/30 07:04:41;;;;;;;4.70;1.50;;;24.30;99.90;;;;;;4953511;28;20420;-50
2022/05/30 07:07:08;;;;;;;4.32;1.40;;;24.40;99.90;;;;;;4953446;29;20035;-50
2022/05/30 07:09:34;;;;;;;5.57;1.70;;;24.40;99.90;;;;;;4953591;29;20494;-50
2022/05/30 07:12:01;;;;;;;4.80;2.38;;;24.40;99.90;;;;;;4952870;28;20479;-50
2022/05/30 07:14:27;;;;;;;6.18;1.85;;;24.40;99.90;;;;;;4953463;28;20015;-50
2022/05/30 07:16:52;;;;;;;5.30;2.42;;;24.50;99.90;;;;;;4953318;29;20027;-50
2022/05/30 07:19:18;;;;;;;6.47;2.00;;;24.50;99.90;;;;;;4953283;29;20146;-50
2022/05/30 07:21:45;;;;;;;4.75;1.92;;;24.50;99.90;;;;;;4952062;28;20106;-50
2022/05/30 07:24:11;;;;;;;5.65;1.80;;;24.50;99.90;;;;;;4953342;28;20015;-50
2022/05/30 07:26:37;;;;;;;7.13;1.67;;;24.60;99.90;;;;;;4953434;28;20114;-50
2022/05/30 07:29:04;;;;;;;7.00;2.63;;;24.60;99.90;;;;;;4953558;28;20098;-50
2022/05/30 07:31:30;;;;;;;8.63;2.10;;;24.70;99.90;;;;;;4952963;29;20023;-50
2022/05/30 07:33:57;;;;;;;3.70;1.80;;;24.70;99.90;;;;;;4952939;28;20043;-51
2022/05/30 07:36:27;;;;;;;6.75;2.17;;;24.70;99.90;;;;;;4953198;28;20070;-51
2022/05/30 07:38:53;;;;;;;6.35;2.20;;;24.70;99.90;;;;;;4953114;28;20067;-51
2022/05/30 07:41:20;;;;;;;5.20;1.70;;;24.70;99.90;;;;;;4952010;29;20028;-51
2022/05/30 07:43:47;;;;;;;5.78;1.52;;;24.80;99.90;;;;;;4953339;28;20751;-51
2022/05/30 07:46:15;;;;;;;6.70;2.50;;;24.80;99.90;;;;;;4953159;28;20391;-51
2022/05/30 07:48:41;;;;;;;3.65;1.80;;;24.80;99.90;;;;;;4952971;28;20023;-50
2022/05/30 07:51:09;;;;;;;6.85;2.40;;;24.80;99.90;;;;;;4953220;28;20043;-50
2022/05/30 07:53:35;;;;;;;;;;;24.90;99.90;;;;;;4953625;29;20035;-50
2022/05/30 07:56:05;;;;;;;6.70;1.77;;;24.90;99.90;;;;;;4952902;28;19917;-50
2022/05/30 07:58:30;;;;;;;4.70;1.42;;;24.90;99.90;;;;;;4953020;29;20027;-50
2022/05/30 08:00:56;;;;;;;4.30;1.63;;;24.90;99.90;;;;;;4952731;28;20055;-50
2022/05/30 08:03:24;;;;;;;6.90;1.58;;;24.80;99.90;;;;;;4952921;29;20074;-50
2022/05/30 08:05:50;;;;;;;5.13;1.65;;;24.80;99.90;;;;;;4952805;29;20035;-50
2022/05/30 08:08:17;;;;;;;8.02;1.98;;;24.70;99.90;;;;;;4951586;29;20526;-50
2022/05/30 08:10:43;;;;;;;3.92;1.90;;;24.70;99.90;;;;;;4952728;28;20130;-51
2022/05/30 08:13:09;;;;;;;5.47;1.77;;;24.70;99.90;;;;;;4952793;28;20046;-51
2022/05/30 08:15:35;;;;;;;7.15;1.25;;;24.70;99.90;;;;;;4952666;28;20537;-50
2022/05/30 08:18:01;;;;;;;5.10;1.90;;;24.60;99.90;;;;;;4952594;29;20040;-50
2022/05/30 08:20:29;;;;;;;8.43;1.70;;;24.50;99.90;;;;;;4952569;28;20023;-50
2022/05/30 08:22:56;;;;;;;3.65;1.40;;;24.50;99.90;;;;;;4953631;28;20034;-51
2022/05/30 08:25:21;;;;;;;6.10;1.42;;;24.50;99.90;;;;;;4956339;28;20090;-50
2022/05/30 08:27:48;;;;;;;6.10;1.35;;;24.40;99.90;;;;;;4956347;28;20535;-50
2022/05/30 08:30:18;;;;;;;4.13;1.85;;;24.40;99.90;;;;;;4956345;28;20023;-48
2022/05/30 08:32:45;;;;;;;5.03;1.45;;;24.30;99.90;;;;;;4956086;29;20464;-47
2022/05/30 08:35:14;;;;;;;6.88;1.55;;;24.30;99.90;;;;;;4956235;28;20027;-50
2022/05/30 08:37:42;;;;;;;4.40;2.00;;;24.30;99.90;;;;;;4956376;29;20593;-50
2022/05/30 08:43:23;;;;;;;5.78;1.60;;;24.20;99.90;;;;;;4955938;29;20491;-50
2022/05/30 08:45:53;;;;;;;7.22;3.13;;;24.20;99.90;;;;;;4955987;29;20102;-50
2022/05/30 08:48:36;;;;;;;5.72;1.80;;;24.10;99.90;;;;;;4955803;28;20116;-50
2022/05/30 08:51:53;;;;;;;6.85;1.60;;;24.10;99.90;;;;;;4955894;28;20027;-49
2022/05/30 08:54:46;;;;;;;3.20;1.10;;;24.10;99.90;;;;;;4955907;29;20538;-50
2022/05/30 08:57:26;;;;;;;4.68;1.60;;;24.10;99.90;;;;;;4955874;28;20383;-50
2022/05/30 09:00:33;;;;;;;5.85;1.50;;;24.10;99.90;;;;;;4955511;28;20399;-50
2022/05/30 09:03:35;;;;;;;8.75;2.08;;;24.10;99.90;;;;;;4955632;28;20031;-50
2022/05/30 09:06:16;;;;;;;3.97;1.20;;;24.10;99.90;;;;;;4951592;28;20035;-50
2022/05/30 09:08:55;;;;;;;5.13;1.40;;;24.10;99.90;;;;;;4955727;29;20498;-50
2022/05/30 09:11:29;;;;;;;6.18;1.85;;;24.00;99.90;;;;;;4955545;29;20106;-50
2022/05/30 09:13:59;;;;;;;6.13;1.70;;;24.00;99.90;;;;;;4955381;29;20119;-50
2022/05/30 09:16:41;;;;;;;10.95;1.95;;;24.00;99.90;;;;;;4955406;28;20056;-50
2022/05/30 09:19:10;;;;;;;8.73;1.88;;;24.00;99.90;;;;;;4955310;28;20507;-50
2022/05/30 09:21:37;;;;;;;4.53;1.70;;;24.00;99.90;;;;;;4955075;28;20023;-50
2022/05/30 09:24:03;;;;;;;11.80;2.03;;;24.00;99.90;;;;;;4955114;28;20023;-50
2022/05/30 09:26:33;;;;;;;5.93;1.23;;;24.00;99.90;;;;;;4955107;28;20830;-50
2022/05/30 09:29:31;;;;;;;4.95;1.42;;;24.10;99.90;;;;;;4955270;28;20043;-50
2022/05/30 09:32:08;;;;;;;5.53;1.25;;;24.10;99.90;;;;;;4947624;28;20125;-50
2022/05/30 09:34:46;;;;;;;7.40;1.23;;;24.20;99.90;;;;;;4954492;28;20505;-50
2022/05/30 09:37:34;;;;;;;6.32;1.08;;;24.20;99.90;;;;;;4955265;29;20398;-51
2022/05/30 09:40:00;;;;;;;7.70;2.05;;;24.20;99.90;;;;;;4955050;28;20562;-50
2022/05/30 09:42:30;;;;;;;4.68;1.35;;;24.30;99.90;;;;;;4955092;29;20015;-50
2022/05/30 09:45:21;;;;;;;4.32;1.52;;;24.30;99.90;;;;;;4969586;28;20027;-50
2022/05/30 09:48:23;;;;;;;3.22;1.60;;;24.30;99.90;;;;;;4951871;28;20467;-51
2022/05/30 09:50:54;;;;;;;5.32;1.60;;;24.30;99.90;;;;;;4933117;29;20075;-50
2022/05/30 09:53:42;;;;;;;4.85;1.40;;;24.30;99.90;;;;;;4951131;28;20525;-50
2022/05/30 09:56:10;;;;;;;9.60;3.85;;;24.20;99.90;;;;;;4954502;28;20082;-50
2022/05/30 09:58:43;;;;;;;;;;;24.10;99.90;;;;;;4955111;28;20031;-51
2022/05/30 10:01:09;;;;;;;6.10;2.00;;;24.10;99.90;;;;;;4954314;28;20001;-50
2022/05/30 10:03:41;;;;;;;7.72;3.40;;;24.10;99.90;;;;;;4954697;29;20030;-50
2022/05/30 10:06:16;;;;;;;11.88;4.20;;;24.10;99.90;;;;;;4954375;29;20035;-50
2022/05/30 10:08:43;;;;;;;7.78;3.40;;;24.10;99.90;;;;;;4969513;28;20034;-50
2022/05/30 10:11:09;;;;;;;8.50;3.15;;;24.10;99.90;;;;;;4954407;28;20032;-50
2022/05/30 10:13:41;;;;;;;10.68;3.30;;;24.10;99.90;;;;;;4954373;29;20053;-50
2022/05/30 10:16:13;;;;;;;6.93;2.67;;;24.10;99.90;;;;;;4954302;28;20425;-51
2022/05/30 10:18:55;;;;;;;14.15;4.00;;;24.20;99.90;;;;;;4954178;28;20034;-51
2022/05/30 10:30:45;;;;;;;7.38;3.47;;;24.10;99.90;;;;;;4954055;28;20094;-50
2022/05/30 10:33:26;;;;;;;12.30;3.80;;;24.10;99.90;;;;;;4953899;28;20043;-50
2022/05/30 10:35:52;;;;;;;17.00;3.22;;;24.10;99.90;;;;;;4968682;28;20098;-49
2022/05/30 10:38:38;;;;;;;12.07;2.83;;;24.00;99.90;;;;;;4953844;29;20034;-49
2022/05/30 10:41:26;;;;;;;6.18;2.28;;;24.10;99.90;;;;;;4952620;28;20045;-49
2022/05/30 10:44:36;;;;;;;12.88;2.70;;;24.10;99.90;;;;;;4950629;29;20023;-51
2022/05/30 10:47:22;;;;;;;7.65;2.00;;;24.20;99.90;;;;;;4875122;29;20068;-51
2022/05/30 10:50:01;;;;;;;10.27;3.42;;;24.30;99.90;;;;;;4875975;29;20554;-49
2022/05/30 10:53:05;;;;;;;13.45;3.53;;;24.30;99.90;;;;;;4938856;28;20062;-50
2022/05/30 10:55:40;;;;;;;7.40;2.25;;;24.30;99.90;;;;;;4911987;29;20051;-50
2022/05/30 10:58:17;;;;;;;9.90;3.22;;;24.40;99.90;;;;;;4947847;28;20101;-50
2022/05/30 11:00:47;;;;;;;;;;;24.40;99.90;;;;;;4952008;28;20051;-50
2022/05/30 11:03:38;;;;;;;10.90;4.97;;;24.50;99.90;;;;;;4952228;28;19910;-49
2022/05/30 11:06:08;;;;;;;10.15;3.40;;;24.40;99.90;;;;;;4951271;28;20436;-49
2022/05/30 11:08:41;;;;;;;6.63;2.55;;;24.40;99.90;;;;;;4952878;28;20102;-49
2022/05/30 11:11:19;;;;;;;9.68;3.58;;;24.40;99.90;;;;;;4965911;28;20027;-50
2022/05/30 11:13:52;;;;;;;10.10;2.63;;;24.40;99.90;;;;;;4950798;29;20062;-49
2022/05/30 11:16:21;;;;;;;9.52;3.50;;;24.40;99.90;;;;;;4951143;28;20023;-50
2022/05/30 11:19:00;;;;;;;10.23;3.30;;;24.40;99.90;;;;;;4951863;28;20039;-50
2022/05/30 11:21:50;;;;;;;9.00;2.92;;;24.30;99.90;;;;;;4950558;28;20494;-50
2022/05/30 11:24:17;;;;;;;9.30;2.42;;;24.40;99.90;;;;;;4952235;28;20170;-50
2022/05/30 11:27:11;;;;;;;9.23;2.50;;;24.40;99.90;;;;;;4953223;28;20082;-50
2022/05/30 11:29:43;;;;;;;6.75;2.47;;;24.50;99.90;;;;;;4953328;28;20024;-50
2022/05/30 11:32:47;;;;;;;11.73;2.55;;;24.50;99.90;;;;;;4953153;28;20122;-50
2022/05/30 11:35:28;;;;;;;13.38;3.95;;;24.50;99.90;;;;;;4950336;29;20424;-51
2022/05/30 11:38:00;;;;;;;9.05;2.70;;;24.40;99.90;;;;;;4953174;28;20164;-50
2022/05/30 11:40:38;;;;;;;9.45;3.65;;;24.30;99.90;;;;;;4953197;29;20034;-50
2022/05/30 11:43:22;;;;;;;;;;;24.30;99.90;;;;;;4953649;28;20047;-50
2022/05/30 11:46:15;;;;;;;12.57;2.53;;;24.40;99.90;;;;;;4953254;28;19945;-50
2022/05/30 11:49:09;;;;;;;6.40;2.15;;;24.40;99.90;;;;;;4952975;28;20078;-50
2022/05/30 11:52:12;;;;;;;10.43;4.85;;;24.40;99.90;;;;;;4942632;28;20039;-50
2022/05/30 11:54:42;;;;;;;6.80;2.05;;;24.50;99.90;;;;;;4943757;28;20051;-51
2022/05/30 11:57:43;;;;;;;11.80;4.32;;;24.50;99.90;;;;;;4954228;28;20023;-50
2022/05/30 12:00:31;;;;;;;9.32;3.45;;;24.60;99.90;;;;;;4955255;28;20570;-50
2022/05/30 12:03:25;;;;;;;10.73;5.00;;;24.60;99.90;;;;;;4956864;28;20463;-50
2022/05/30 12:06:22;;;;;;;11.70;4.80;;;24.70;99.90;;;;;;4956914;28;20027;-52
2022/05/30 12:09:17;;;;;;;15.40;6.30;;;24.70;99.90;;;;;;4956714;28;20031;-51
2022/05/30 12:12:13;;;;;;;12.50;3.72;;;24.70;99.90;;;;;;4954755;28;20039;-53
2022/05/30 12:15:11;;;;;;;11.50;2.60;;;24.70;99.90;;;;;;4956426;28;20034;-52
2022/05/30 12:24:21;;;;;;;11.82;2.40;;;24.70;99.90;;;;;;4956507;29;20030;-52
2022/05/30 12:26:52;;;;;;;12.18;3.00;;;24.80;99.90;;;;;;4971033;28;20074;-51
2022/05/30 12:29:39;;;;;;;6.50;2.95;;;24.80;99.90;;;;;;4956393;28;20090;-51
2022/05/30 12:32:34;;;;;;;8.23;3.45;;;24.90;99.90;;;;;;4956018;29;20027;-51
2022/05/30 12:37:44;;;;;;;12.55;3.47;;;24.80;99.90;;;;;;4956290;28;20118;-51
2022/05/30 12:40:19;;;;;;;15.65;4.07;;;24.80;99.90;;;;;;4956078;28;20463;-51
2022/05/30 12:42:55;;;;;;;10.48;4.53;;;24.90;99.90;;;;;;4955999;29;20035;-50
2022/05/30 12:45:33;;;;;;;16.40;5.45;;;24.80;99.90;;;;;;4955677;28;20015;-52
2022/05/30 12:48:01;;;;;;;14.35;5.95;;;24.80;99.90;;;;;;4955820;28;20034;-52
2022/05/30 12:50:30;;;;;;;11.23;3.65;;;24.80;99.90;;;;;;4955626;28;20515;-51
2022/05/30 12:52:59;;;;;;;13.18;6.82;;;24.80;99.90;;;;;;4955703;28;20039;-51
2022/05/30 12:55:53;;;;;;;13.13;6.28;;;24.90;99.90;;;;;;4955600;28;20051;-52
2022/05/30 12:58:39;;;;;;;15.32;4.70;;;24.90;99.90;;;;;;4953821;28;20094;-52
2022/05/30 13:01:19;;;;;;;9.63;3.40;;;24.90;99.90;;;;;;4920403;28;20495;-52
2022/05/30 13:04:01;;;;;;;12.13;4.05;;;25.00;99.90;;;;;;4955344;28;20110;-54
2022/05/30 13:06:30;;;;;;;15.80;6.78;;;25.00;99.90;;;;;;4954288;28;20034;-51
2022/05/30 13:09:15;;;;;;;26.80;16.95;;;25.10;99.90;;;;;;4952115;28;20487;-52
2022/05/30 13:11:56;;;;;;;13.63;8.15;;;25.10;99.90;;;;;;4955161;28;20028;-53
2022/05/30 13:14:22;;;;;;;13.35;6.13;;;25.10;99.90;;;;;;4948674;28;20022;-53
2022/05/30 13:16:48;;;;;;;13.82;4.47;;;25.20;99.90;;;;;;4962098;28;20451;-53
2022/05/30 13:19:16;;;;;;;9.10;3.45;;;25.20;99.90;;;;;;4955149;28;20023;-52
2022/05/30 13:21:48;;;;;;;9.35;3.70;;;25.30;99.90;;;;;;4955147;28;20023;-51
2022/05/30 13:24:36;;;;;;;8.48;2.10;;;25.30;99.90;;;;;;4954673;28;20447;-54
2022/05/30 13:27:03;;;;;;;10.90;2.65;;;25.30;99.90;;;;;;4955087;28;20023;-51
2022/05/30 13:29:34;;;;;;;12.68;3.22;;;25.30;99.90;;;;;;4954749;28;20027;-52
2022/05/30 13:32:03;;;;;;;7.65;3.55;;;25.40;99.90;;;;;;4954774;28;20120;-53
2022/05/30 13:34:32;;;;;;;6.90;2.88;;;25.50;99.90;;;;;;4954529;28;20483;-53
2022/05/30 13:37:01;;;;;;;9.50;2.35;;;25.50;99.90;;;;;;4954673;28;20117;-52
2022/05/30 13:39:27;;;;;;;6.85;2.72;;;25.50;99.90;;;;;;4954458;28;20027;-53